Time;durP1;ratioP1;P1;durP2;ratioP2;P2;SDS_P1;SDS_P2;PMS_P1;PMS_P2;Temp;Humidity;BMP_temperature;BMP_pressure;BME280_temperature;BME280_humidity;BME280_pressure;Samples;Min_cycle;Max_cycle;Signal;HPM_P1;HPM_P2
2023/03/08 00:00:51;;;;;;;13.82;6.95;;;;;;;4.25;60.65;100018.56;5051943;27;114261;-63
2023/03/08 00:03:18;;;;;;;13.25;6.47;;;;;;;4.24;60.65;100017.72;5049166;27;113382;-62
2023/03/08 00:05:45;;;;;;;14.10;7.13;;;;;;;4.24;60.24;100014.22;5048685;27;124643;-62
2023/03/08 00:08:13;;;;;;;14.50;7.43;;;;;;;4.24;60.67;100016.84;5043667;27;124456;-63
2023/03/08 00:10:40;;;;;;;17.92;7.22;;;;;;;4.22;60.66;100018.63;5045140;27;114574;-63
2023/03/08 00:13:07;;;;;;;13.52;7.15;;;;;;;4.21;60.51;100022.19;5048026;27;114516;-62
2023/03/08 00:15:36;;;;;;;12.35;6.95;;;;;;;4.20;60.60;100020.47;5032956;27;123039;-63
2023/03/08 00:18:05;;;;;;;11.95;6.85;;;;;;;4.19;60.72;100021.38;5053819;27;123633;-63
2023/03/08 00:20:32;;;;;;;13.48;7.18;;;;;;;4.18;60.41;100012.66;5050623;27;115601;-63
2023/03/08 00:23:00;;;;;;;17.02;7.65;;;;;;;4.17;60.56;100010.09;5048800;27;114828;-63
2023/03/08 00:25:27;;;;;;;17.98;8.00;;;;;;;4.15;60.76;100012.75;5044169;27;124053;-63
2023/03/08 00:27:54;;;;;;;13.90;7.53;;;;;;;4.16;60.38;100008.38;5049969;27;124659;-63
2023/03/08 00:30:21;;;;;;;12.73;6.97;;;;;;;4.15;60.59;100006.66;5035691;27;113128;-63
2023/03/08 00:32:49;;;;;;;16.15;7.35;;;;;;;4.14;60.55;100015.41;5047894;27;114131;-63
2023/03/08 00:35:18;;;;;;;13.25;7.30;;;;;;;4.13;60.51;100009.31;5046995;27;122863;-64
2023/03/08 00:37:45;;;;;;;15.13;7.15;;;;;;;4.14;60.38;100010.19;5050984;27;124057;-63
2023/03/08 00:40:15;;;;;;;15.63;7.57;;;;;;;4.14;60.46;100004.94;5048812;27;113540;-63
2023/03/08 00:42:42;;;;;;;13.18;7.15;;;;;;;4.14;60.68;100004.94;5052368;27;113735;-64
2023/03/08 00:45:10;;;;;;;15.55;7.65;;;;;;;4.12;60.54;100006.75;5029391;27;123149;-64
2023/03/08 00:47:38;;;;;;;14.73;7.65;;;;;;;4.10;60.44;100010.25;5049874;27;122753;-64
2023/03/08 00:50:06;;;;;;;17.33;8.02;;;;;;;4.10;60.62;100005.03;5049634;27;114653;-64
2023/03/08 00:52:33;;;;;;;13.40;7.70;;;;;;;4.10;60.69;99999.78;5048747;27;115016;-64
2023/03/08 00:55:00;;;;;;;15.88;7.72;;;;;;;4.09;60.39;100003.31;5048577;27;124050;-63
2023/03/08 00:57:27;;;;;;;20.27;8.57;;;;;;;4.08;60.37;100001.59;5049161;27;124214;-63
2023/03/08 00:59:54;;;;;;;18.67;8.15;;;;;;;4.07;60.59;100005.16;5033183;27;114595;-63
2023/03/08 01:02:22;;;;;;;16.17;8.65;;;;;;;4.07;60.37;99999.91;5045730;27;114108;-64
2023/03/08 01:04:49;;;;;;;14.65;7.95;;;;;;;4.06;60.52;99992.94;5029554;27;123218;-64
2023/03/08 01:07:17;;;;;;;18.05;8.48;;;;;;;4.06;60.65;99998.16;5032842;27;122795;-63
2023/03/08 01:09:44;;;;;;;16.85;8.25;;;;;;;4.06;60.48;99992.94;5032937;27;115595;-63
2023/03/08 01:12:13;;;;;;;15.75;8.60;;;;;;;4.05;60.71;99991.22;5030266;27;114559;-63
2023/03/08 01:14:40;;;;;;;16.08;8.23;;;;;;;4.06;60.63;99992.09;5048867;27;123985;-64
2023/03/08 01:17:07;;;;;;;14.27;8.00;;;;;;;4.05;60.35;99988.63;5032597;27;123526;-64
2023/03/08 01:19:35;;;;;;;16.77;9.02;;;;;;;4.04;60.74;99984.28;5052114;27;114480;-64
2023/03/08 01:22:03;;;;;;;18.40;9.10;;;;;;;4.06;60.54;99985.06;5033760;27;113676;-64
2023/03/08 01:24:32;;;;;;;21.98;9.52;;;;;;;4.06;60.76;99982.44;5027232;27;123317;-64
2023/03/08 01:26:59;;;;;;;21.05;10.43;;;;;;;4.07;60.75;99978.94;5032664;27;122701;-64
2023/03/08 01:29:27;;;;;;;18.20;9.50;;;;;;;4.06;60.71;99971.97;5048190;27;114683;-64
2023/03/08 01:31:57;;;;;;;20.45;9.95;;;;;;;4.07;60.80;99965.84;5045347;27;114191;-64
2023/03/08 01:34:24;;;;;;;20.35;10.32;;;;;;;4.08;60.64;99964.06;5028963;27;123144;-65
2023/03/08 01:36:51;;;;;;;20.25;10.13;;;;;;;4.07;60.54;99957.97;5045692;27;123971;-64
2023/03/08 01:39:18;;;;;;;20.45;10.52;;;;;;;4.07;60.96;99952.75;5029894;27;113227;-64
2023/03/08 01:41:46;;;;;;;21.52;11.02;;;;;;;4.08;60.74;99943.94;5046301;27;114831;-63
2023/03/08 01:44:17;;;;;;;23.58;11.63;;;;;;;4.08;60.92;99954.44;5052056;27;124478;-63
2023/03/08 01:46:46;;;;;;;22.40;11.32;;;;;;;4.08;60.87;99938.72;5032484;27;122408;-64
2023/03/08 01:49:35;;;;;;;24.73;11.35;;;;;;;4.09;60.69;99940.44;5046206;27;114423;-63
2023/03/08 01:52:08;;;;;;;25.60;11.52;;;;;;;4.10;60.71;99928.19;5052023;27;113774;-63
2023/03/08 01:54:40;;;;;;;20.42;11.02;;;;;;;4.11;61.03;99932.53;5028286;27;123188;-63
2023/03/08 01:57:16;;;;;;;23.45;10.85;;;;;;;4.12;60.83;99928.13;5044269;27;124432;-63
2023/03/08 01:59:47;;;;;;;20.42;11.80;;;;;;;4.12;60.81;99922.91;5028722;27;115576;-63
2023/03/08 02:02:18;;;;;;;22.27;11.30;;;;;;;4.13;60.78;99924.63;5042875;27;115050;-63
2023/03/08 02:04:46;;;;;;;23.30;11.75;;;;;;;4.14;60.99;99916.69;5047291;27;124089;-63
2023/03/08 02:07:13;;;;;;;22.08;11.70;;;;;;;4.14;60.95;99910.59;5049577;27;124169;-63
2023/03/08 02:09:42;;;;;;;25.55;11.80;;;;;;;4.16;60.92;99919.25;5034407;27;113593;-63
2023/03/08 02:12:12;;;;;;;23.80;12.38;;;;;;;4.16;60.74;99914.03;5046674;27;114587;-63
2023/03/08 02:14:42;;;;;;;23.42;12.20;;;;;;;4.17;61.28;99915.75;5016665;27;123626;-64
2023/03/08 02:17:10;;;;;;;23.83;12.60;;;;;;;4.17;60.98;99915.75;5033710;27;123158;-64
2023/03/08 02:19:47;;;;;;;24.15;13.10;;;;;;;4.18;61.03;99906.97;5047420;27;114561;-64
2023/03/08 02:22:15;;;;;;;24.67;13.23;;;;;;;4.18;60.97;99909.59;5031688;27;113231;-64
2023/03/08 02:24:45;;;;;;;25.73;13.55;;;;;;;4.19;61.03;99904.28;5025340;27;123112;-64
2023/03/08 02:27:17;;;;;;;27.67;13.73;;;;;;;4.18;60.80;99897.34;5047055;27;124485;-64
2023/03/08 02:29:44;;;;;;;25.40;13.32;;;;;;;4.19;61.08;99890.34;5049120;27;114255;-64
2023/03/08 02:32:12;;;;;;;29.65;13.45;;;;;;;4.19;61.05;99882.47;5014496;27;113370;-64
2023/03/08 02:34:39;;;;;;;27.70;14.48;;;;;;;4.21;61.11;99880.66;5043806;27;124368;-64
2023/03/08 02:37:06;;;;;;;29.25;13.73;;;;;;;4.22;61.27;99882.34;5029301;27;122894;-64
2023/03/08 02:39:33;;;;;;;31.15;14.20;;;;;;;4.23;61.14;99876.22;5032203;27;113201;-64
2023/03/08 02:42:01;;;;;;;26.60;13.80;;;;;;;4.26;60.98;99884.00;5047517;27;114708;-64
2023/03/08 02:44:28;;;;;;;25.50;13.65;;;;;;;4.27;60.97;99876.06;5012567;27;123202;-64
2023/03/08 02:46:55;;;;;;;28.30;13.95;;;;;;;4.30;61.01;99872.50;5049918;27;123809;-65
2023/03/08 02:49:22;;;;;;;31.00;14.15;;;;;;;4.32;61.24;99868.03;5043967;27;115681;-64
2023/03/08 02:51:51;;;;;;;28.50;14.80;;;;;;;4.34;61.12;99871.47;5030530;27;114339;-63
2023/03/08 02:54:19;;;;;;;26.33;13.82;;;;;;;4.37;61.35;99860.00;5044309;27;123757;-63
2023/03/08 02:56:46;;;;;;;30.67;15.05;;;;;;;4.38;60.97;99852.09;5034721;27;123036;-63
2023/03/08 02:59:13;;;;;;;29.40;14.18;;;;;;;4.40;60.90;99850.25;5027379;27;113555;-63
2023/03/08 03:01:43;;;;;;;29.52;14.25;;;;;;;4.42;61.24;99848.44;5047561;27;114705;-63
2023/03/08 03:04:10;;;;;;;30.67;15.27;;;;;;;4.44;61.13;99862.34;5025120;27;123117;-63
2023/03/08 03:06:38;;;;;;;31.80;15.00;;;;;;;4.47;61.21;99856.16;5048720;27;124456;-63
2023/03/08 03:09:09;;;;;;;30.63;15.10;;;;;;;4.49;61.46;99857.81;5050537;27;114437;-63
2023/03/08 03:11:39;;;;;;;31.73;14.80;;;;;;;4.53;61.33;99855.09;5035290;27;113186;-63
2023/03/08 03:14:06;;;;;;;39.58;17.17;;;;;;;4.55;61.34;99863.75;5012285;27;123056;-63
2023/03/08 03:16:38;;;;;;;35.47;15.95;;;;;;;4.57;61.25;99856.69;5031047;27;123420;-63
2023/03/08 03:19:06;;;;;;;38.08;16.65;;;;;;;4.59;61.15;99860.09;5034683;27;113893;-63
2023/03/08 03:21:33;;;;;;;38.97;16.73;;;;;;;4.60;61.14;99846.09;5046642;27;114607;-63
2023/03/08 03:24:00;;;;;;;33.92;16.08;;;;;;;4.62;61.39;99847.72;5028195;27;123555;-63
2023/03/08 03:26:39;;;;;;;35.17;16.88;;;;;;;4.66;61.15;99845.84;5033655;27;126634;-64
2023/03/08 03:29:07;;;;;;;38.10;17.55;;;;;;;4.68;61.34;99833.53;5017860;28;113478;-64
2023/03/08 03:31:37;;;;;;;38.22;16.92;;;;;;;4.69;61.33;99830.03;5029130;27;113653;-64
2023/03/08 03:34:04;;;;;;;39.42;17.02;;;;;;;4.73;61.24;99831.63;5029580;27;123801;-64
2023/03/08 03:36:33;;;;;;;40.90;17.58;;;;;;;4.75;61.17;99835.03;5046884;27;124017;-64
2023/03/08 03:39:00;;;;;;;36.97;17.05;;;;;;;4.77;61.26;99830.56;5026267;27;114848;-64
2023/03/08 03:41:29;;;;;;;43.90;18.83;;;;;;;4.79;61.30;99820.88;5030360;27;114688;-64
2023/03/08 03:44:08;;;;;;;43.72;18.88;;;;;;;4.81;61.46;99816.44;5034841;27;123300;-65
2023/03/08 03:46:35;;;;;;;37.92;17.52;;;;;;;4.82;61.06;99805.03;5031188;27;123346;-65
2023/03/08 03:49:04;;;;;;;41.83;18.02;;;;;;;4.82;60.93;99793.66;5045481;27;114834;-65
2023/03/08 03:51:36;;;;;;;35.92;17.02;;;;;;;4.81;61.22;99782.31;5045772;27;113143;-64
2023/03/08 03:54:18;;;;;;;38.92;17.35;;;;;;;4.81;61.29;99782.31;5032272;27;124559;-64
2023/03/08 03:56:46;;;;;;;34.45;16.80;;;;;;;4.81;61.11;99782.31;5047162;27;124222;-64
2023/03/08 03:59:14;;;;;;;36.63;16.50;;;;;;;4.81;61.29;99782.31;5029190;27;113703;-63
2023/03/08 04:01:41;;;;;;;35.38;16.65;;;;;;;4.81;61.09;99777.09;5027972;27;113324;-63
2023/03/08 04:04:17;;;;;;;32.70;16.25;;;;;;;4.82;61.26;99784.06;5033631;27;122993;-64
2023/03/08 04:06:46;;;;;;;37.38;17.17;;;;;;;4.80;61.30;99783.25;5029929;27;124703;-64
2023/03/08 04:09:18;;;;;;;30.55;14.05;;;;;;;4.81;61.29;99782.31;5017629;27;114243;-63
2023/03/08 04:11:54;;;;;;;25.80;10.95;;;;;;;4.80;61.27;99772.75;5032179;27;112513;-64
2023/03/08 04:14:22;;;;;;;25.15;10.77;;;;;;;4.79;60.99;99768.41;5034455;27;122986;-64
2023/03/08 04:16:52;;;;;;;26.50;11.15;;;;;;;4.79;61.06;99778.91;5031237;27;124138;-64
2023/03/08 04:19:26;;;;;;;23.25;10.60;;;;;;;4.80;61.09;99780.63;5029217;27;116881;-64
2023/03/08 04:21:56;;;;;;;22.88;10.55;;;;;;;4.80;61.32;99764.91;5032306;27;113271;-64
2023/03/08 04:24:27;;;;;;;20.75;9.63;;;;;;;4.81;60.97;99760.50;5030439;27;123118;-64
2023/03/08 04:26:59;;;;;;;21.63;10.43;;;;;;;4.81;61.12;99750.84;5050807;27;123500;-64
2023/03/08 04:29:27;;;;;;;23.05;10.25;;;;;;;4.80;61.16;99746.53;5030048;27;114090;-64
2023/03/08 04:31:58;;;;;;;21.50;10.57;;;;;;;4.81;61.07;99745.59;5045737;27;114112;-64
2023/03/08 04:34:32;;;;;;;21.38;10.38;;;;;;;4.82;61.19;99736.84;5029216;27;126584;-64
2023/03/08 04:36:59;;;;;;;20.45;10.05;;;;;;;4.82;61.18;99741.19;5052301;27;124607;-64
2023/03/08 04:39:26;;;;;;;22.75;9.90;;;;;;;4.84;61.08;99740.25;5032805;27;113440;-64
2023/03/08 04:41:54;;;;;;;24.02;10.57;;;;;;;4.84;61.17;99735.00;5044612;27;113185;-64
2023/03/08 04:44:25;;;;;;;25.08;10.82;;;;;;;4.84;60.93;99729.75;5033954;27;122996;-64
2023/03/08 04:46:53;;;;;;;23.48;10.93;;;;;;;4.86;61.15;99732.31;5031789;27;123622;-64
2023/03/08 04:49:27;;;;;;;19.47;9.60;;;;;;;4.86;61.13;99727.91;5033336;27;113369;-64
2023/03/08 04:51:59;;;;;;;24.25;10.27;;;;;;;4.86;60.90;99717.44;5029847;27;113256;-64
2023/03/08 04:54:27;;;;;;;25.00;10.88;;;;;;;4.86;60.99;99712.19;5027460;27;122351;-64
2023/03/08 04:57:00;;;;;;;24.05;9.93;;;;;;;4.82;61.02;99710.59;5030253;27;123032;-64
2023/03/08 04:59:29;;;;;;;22.92;10.02;;;;;;;4.80;60.92;99712.44;5030870;27;113396;-64
2023/03/08 05:01:59;;;;;;;21.58;10.32;;;;;;;4.77;60.96;99702.06;5043732;27;114091;-64
2023/03/08 05:04:29;;;;;;;21.15;9.93;;;;;;;4.74;61.05;99696.06;5028233;27;122694;-64
2023/03/08 05:06:56;;;;;;;21.83;10.20;;;;;;;4.71;61.01;99697.06;5030898;27;122888;-64
2023/03/08 05:09:26;;;;;;;23.63;10.68;;;;;;;4.71;60.86;99693.56;5027482;27;113412;-64
2023/03/08 05:11:54;;;;;;;25.85;10.32;;;;;;;4.71;61.16;99686.56;5051192;27;114266;-64
2023/03/08 05:14:22;;;;;;;24.20;10.85;;;;;;;4.70;61.22;99682.22;5030443;27;123397;-64
2023/03/08 05:16:49;;;;;;;23.67;10.93;;;;;;;4.71;60.91;99676.06;5027457;27;123107;-64
2023/03/08 05:19:17;;;;;;;26.38;10.55;;;;;;;4.71;61.22;99669.94;5031470;27;114525;-64
2023/03/08 05:21:49;;;;;;;22.58;10.60;;;;;;;4.73;61.09;99678.63;5030903;27;114439;-64
2023/03/08 05:24:16;;;;;;;22.90;10.48;;;;;;;4.73;61.03;99662.88;5030028;27;123179;-64
2023/03/08 05:26:43;;;;;;;21.88;9.98;;;;;;;4.75;61.23;99661.91;5030638;27;123521;-64
2023/03/08 05:29:15;;;;;;;23.45;10.60;;;;;;;4.76;60.92;99663.59;5029852;27;113366;-65
2023/03/08 05:31:44;;;;;;;23.77;10.35;;;;;;;4.78;60.98;99651.28;5029395;27;113450;-64
2023/03/08 05:34:12;;;;;;;25.52;10.52;;;;;;;4.78;61.06;99648.66;5046132;27;124250;-64
2023/03/08 05:36:44;;;;;;;23.63;10.40;;;;;;;4.79;61.00;99642.50;5033280;27;122844;-64
2023/03/08 05:39:11;;;;;;;22.20;10.15;;;;;;;4.82;61.13;99636.28;5032266;27;113467;-64
2023/03/08 05:41:48;;;;;;;23.15;10.23;;;;;;;4.83;61.09;99628.34;5032002;27;116608;-64
2023/03/08 05:44:22;;;;;;;25.67;10.35;;;;;;;4.81;61.24;99619.69;5013615;27;126544;-64
2023/03/08 05:46:50;;;;;;;23.00;10.23;;;;;;;4.83;60.94;99612.59;5032341;27;122965;-64
2023/03/08 05:49:19;;;;;;;25.67;11.23;;;;;;;4.83;61.04;99612.59;5033814;27;113475;-65
2023/03/08 05:51:46;;;;;;;24.23;10.77;;;;;;;4.83;61.20;99602.13;5031880;27;113493;-64
2023/03/08 05:54:14;;;;;;;28.67;11.00;;;;;;;4.83;61.21;99607.38;5032344;27;123359;-65
2023/03/08 05:56:43;;;;;;;25.48;11.15;;;;;;;4.83;60.97;99602.13;5031181;27;124268;-64
2023/03/08 05:59:20;;;;;;;29.80;13.48;;;;;;;4.84;61.12;99598.59;5040288;27;114939;-65
2023/03/08 06:01:48;;;;;;;30.58;13.15;;;;;;;4.84;61.19;99582.84;5024348;27;113468;-65
2023/03/08 06:04:25;;;;;;;28.75;12.75;;;;;;;4.86;61.34;99580.16;5027853;27;123023;-65
2023/03/08 06:06:53;;;;;;;27.88;12.70;;;;;;;4.85;61.06;99584.53;5028659;27;123070;-65
2023/03/08 06:09:24;;;;;;;29.27;13.02;;;;;;;4.87;61.35;99577.47;5029637;27;114399;-65
2023/03/08 06:11:52;;;;;;;29.88;13.73;;;;;;;4.86;61.17;99565.28;5045959;27;115966;-65
2023/03/08 06:14:19;;;;;;;29.70;12.82;;;;;;;4.88;60.97;99573.94;5046299;27;124066;-65
2023/03/08 06:16:47;;;;;;;31.60;14.15;;;;;;;4.87;61.01;99560.88;5027711;27;123840;-64
2023/03/08 06:19:17;;;;;;;27.80;12.48;;;;;;;4.87;61.17;99551.22;5023821;27;113497;-64
2023/03/08 06:21:45;;;;;;;36.40;14.18;;;;;;;4.88;61.22;99552.94;5016915;27;113178;-65
2023/03/08 06:24:12;;;;;;;31.85;14.18;;;;;;;4.90;61.36;99554.63;5042214;27;124284;-65
2023/03/08 06:26:40;;;;;;;29.33;13.77;;;;;;;4.90;61.37;99554.63;5042337;27;123351;-65
2023/03/08 06:29:07;;;;;;;32.30;14.32;;;;;;;4.90;61.18;99559.88;5030621;27;112539;-65
2023/03/08 06:31:35;;;;;;;33.47;13.48;;;;;;;4.88;61.00;99552.94;5028258;27;113052;-67
2023/03/08 06:34:03;;;;;;;31.05;13.77;;;;;;;4.91;61.12;99561.59;5029263;27;123139;-67
2023/03/08 06:36:31;;;;;;;33.13;13.52;;;;;;;4.91;61.23;99558.97;5030836;27;124144;-65
2023/03/08 06:38:58;;;;;;;31.65;13.45;;;;;;;4.90;61.08;99559.88;5038379;27;114422;-65
2023/03/08 06:41:26;;;;;;;32.65;13.73;;;;;;;4.88;61.16;99552.94;5026518;27;113347;-65
2023/03/08 06:43:55;;;;;;;29.98;13.57;;;;;;;4.90;61.14;99549.38;5024304;27;123095;-65
2023/03/08 06:46:23;;;;;;;24.65;11.25;;;;;;;4.91;61.07;99556.34;5031949;27;124620;-65
2023/03/08 06:48:51;;;;;;;22.73;10.93;;;;;;;4.90;61.11;99550.25;5039890;27;113501;-65
2023/03/08 06:51:19;;;;;;;24.38;11.52;;;;;;;4.88;61.08;99547.69;5029041;27;113276;-65
2023/03/08 06:53:47;;;;;;;21.33;10.57;;;;;;;4.87;61.06;99545.97;5045005;27;124292;-65
2023/03/08 06:56:18;;;;;;;25.15;10.48;;;;;;;4.87;61.07;99540.72;5034114;27;123689;-65
2023/03/08 06:58:45;;;;;;;23.70;9.45;;;;;;;4.89;61.39;99543.28;5045403;27;115147;-65
2023/03/08 07:01:12;;;;;;;19.90;9.20;;;;;;;4.90;61.05;99549.38;5048569;27;115252;-65
2023/03/08 07:03:40;;;;;;;18.15;8.88;;;;;;;4.88;61.33;99542.44;5031794;27;122779;-65
2023/03/08 07:06:08;;;;;;;19.17;8.30;;;;;;;4.87;61.38;99540.72;5039104;27;123831;-65
2023/03/08 07:08:38;;;;;;;16.48;7.80;;;;;;;4.86;61.09;99549.53;5041568;27;114330;-65
2023/03/08 07:11:07;;;;;;;17.10;7.53;;;;;;;4.85;61.00;99536.47;5030824;27;113370;-65
2023/03/08 07:13:35;;;;;;;18.15;7.95;;;;;;;4.83;61.02;99539.16;5051402;27;124325;-65
2023/03/08 07:16:11;;;;;;;18.55;7.70;;;;;;;4.81;61.23;99548.03;5027301;27;123174;-66
2023/03/08 07:18:38;;;;;;;;;;;;;;;4.78;61.17;99541.13;5040662;27;115128;-65
2023/03/08 07:21:09;;;;;;;14.55;6.40;;;;;;;4.78;60.91;99546.38;5048701;27;113959;-66
2023/03/08 07:23:36;;;;;;;16.83;7.20;;;;;;;4.75;60.90;99546.50;5047998;27;124063;-66
2023/03/08 07:26:05;;;;;;;13.27;6.13;;;;;;;4.73;61.07;99547.47;5050600;27;126138;-65
2023/03/08 07:28:33;;;;;;;15.57;7.22;;;;;;;4.71;60.88;99547.56;5036674;27;113887;-65
2023/03/08 07:31:00;;;;;;;13.27;6.82;;;;;;;4.70;60.97;99532.72;5045426;27;114201;-66
2023/03/08 07:33:27;;;;;;;12.98;5.93;;;;;;;4.70;61.06;99527.50;5040886;27;125652;-66
2023/03/08 07:36:00;;;;;;;12.13;6.07;;;;;;;4.71;61.37;99518.72;5040806;27;124010;-66
2023/03/08 07:38:28;;;;;;;12.40;5.97;;;;;;;4.72;61.33;99520.41;5039891;27;114260;-66
2023/03/08 07:40:55;;;;;;;12.55;6.57;;;;;;;4.72;61.29;99515.16;5047521;27;114126;-66
2023/03/08 07:43:23;;;;;;;15.30;6.35;;;;;;;4.72;61.05;99520.41;5058009;27;124348;-66
2023/03/08 07:45:53;;;;;;;11.57;6.35;;;;;;;4.72;60.98;99515.16;5066460;27;124417;-66
2023/03/08 07:48:20;;;;;;;15.23;6.78;;;;;;;4.73;61.12;99516.88;5053496;27;115129;-66
2023/03/08 07:50:47;;;;;;;13.55;6.40;;;;;;;4.72;61.00;99504.66;5053474;27;115167;-65
2023/03/08 07:53:14;;;;;;;13.50;6.50;;;;;;;4.73;61.18;99505.50;5031632;27;123568;-65
2023/03/08 07:55:42;;;;;;;12.23;6.25;;;;;;;4.75;61.18;99504.56;5039295;27;123570;-66
2023/03/08 07:58:09;;;;;;;11.48;5.70;;;;;;;4.74;61.13;99508.06;5033368;27;114310;-66
2023/03/08 08:00:37;;;;;;;11.60;5.45;;;;;;;4.75;61.02;99504.56;5038301;27;114192;-67
2023/03/08 08:03:04;;;;;;;12.90;6.40;;;;;;;4.75;60.97;99488.81;5068765;27;124070;-66
2023/03/08 08:05:34;;;;;;;11.18;6.10;;;;;;;4.76;61.29;99501.00;5054152;27;124523;-66
2023/03/08 08:08:02;;;;;;;15.77;6.18;;;;;;;4.77;61.20;99502.72;5049910;27;114124;-66
2023/03/08 08:10:29;;;;;;;11.05;6.10;;;;;;;4.78;61.34;99499.16;5043853;27;113982;-66
2023/03/08 08:12:56;;;;;;;10.07;5.68;;;;;;;4.78;60.86;99496.53;5050920;27;124001;-66
2023/03/08 08:15:24;;;;;;;10.88;5.47;;;;;;;4.78;61.40;99488.66;5040720;27;123995;-66
2023/03/08 08:17:52;;;;;;;8.98;4.85;;;;;;;4.78;61.23;99488.66;5033744;27;114002;-66
2023/03/08 08:20:19;;;;;;;10.50;5.10;;;;;;;4.76;61.33;99485.25;5054464;27;114255;-65
2023/03/08 08:22:48;;;;;;;7.82;3.45;;;;;;;4.77;61.03;99480.88;5069117;27;123994;-66
2023/03/08 08:25:15;;;;;;;8.75;4.55;;;;;;;4.77;61.09;99486.13;5042757;27;125587;-64
2023/03/08 08:27:43;;;;;;;8.43;4.10;;;;;;;4.76;61.12;99477.38;5040947;27;113997;-65
2023/03/08 08:30:12;;;;;;;8.32;3.72;;;;;;;4.76;61.38;99481.78;5051560;27;114073;-66
2023/03/08 08:32:39;;;;;;;7.25;3.88;;;;;;;4.76;61.37;99474.75;5052482;27;126243;-66
2023/03/08 08:35:07;;;;;;;8.43;3.80;;;;;;;4.76;61.28;99466.91;5032706;27;124305;-65
2023/03/08 08:37:34;;;;;;;10.48;4.25;;;;;;;4.76;61.26;99458.19;5042762;27;115255;-65
2023/03/08 08:40:02;;;;;;;9.20;4.78;;;;;;;4.74;61.04;99458.25;5042317;27;115074;-65
2023/03/08 08:42:30;;;;;;;8.20;4.47;;;;;;;4.75;61.28;99457.34;5047905;27;124333;-65
2023/03/08 08:44:57;;;;;;;11.27;4.78;;;;;;;4.73;61.21;99448.69;5037530;27;124221;-65
2023/03/08 08:47:24;;;;;;;9.35;4.57;;;;;;;4.70;61.26;99448.81;5046295;27;113251;-65
2023/03/08 08:49:51;;;;;;;9.85;4.95;;;;;;;4.69;61.20;99457.63;5037138;27;114281;-65
2023/03/08 08:52:18;;;;;;;12.05;4.88;;;;;;;4.69;60.91;99449.75;5032933;27;123965;-65
2023/03/08 08:54:45;;;;;;;8.60;4.43;;;;;;;4.67;61.20;99438.44;5031640;27;124210;-66
2023/03/08 08:57:12;;;;;;;12.82;5.30;;;;;;;4.65;61.25;99429.78;5045021;27;114372;-66
2023/03/08 08:59:40;;;;;;;9.82;5.07;;;;;;;4.63;61.24;99426.38;5034748;27;115012;-66
2023/03/08 09:02:09;;;;;;;9.85;5.13;;;;;;;4.61;61.06;99433.47;5030668;27;123921;-66
2023/03/08 09:04:36;;;;;;;10.77;5.13;;;;;;;4.61;61.35;99433.47;5033059;27;123730;-66
2023/03/08 09:07:06;;;;;;;11.27;5.88;;;;;;;4.62;61.36;99436.03;5056463;27;114104;-66
2023/03/08 09:09:33;;;;;;;12.32;5.80;;;;;;;4.63;61.16;99426.38;5058404;27;114068;-66
2023/03/08 09:12:00;;;;;;;12.75;6.40;;;;;;;4.63;61.48;99431.63;5042667;27;124054;-66
2023/03/08 09:14:27;;;;;;;11.02;6.28;;;;;;;4.64;61.08;99438.59;5047562;27;123736;-65
2023/03/08 09:16:54;;;;;;;15.18;7.47;;;;;;;4.64;61.34;99433.34;5044870;27;114291;-65
2023/03/08 09:19:22;;;;;;;15.68;7.32;;;;;;;4.64;61.37;99438.59;5048256;27;113833;-65
2023/03/08 09:21:49;;;;;;;16.27;7.47;;;;;;;4.64;61.62;99434.19;5019792;27;123107;-65
2023/03/08 09:24:16;;;;;;;17.73;8.55;;;;;;;4.65;61.66;99440.28;5046614;27;124597;-65
2023/03/08 09:26:43;;;;;;;18.60;7.90;;;;;;;4.65;61.58;99435.91;5042495;27;115252;-65
2023/03/08 09:29:11;;;;;;;17.65;8.80;;;;;;;4.65;61.44;99429.78;5030480;28;113939;-65
2023/03/08 09:31:38;;;;;;;18.95;8.70;;;;;;;4.66;61.66;99421.03;5032573;27;125475;-65
2023/03/08 09:34:07;;;;;;;18.83;8.20;;;;;;;4.67;61.57;99412.22;5036118;27;123063;-65
2023/03/08 09:36:40;;;;;;;15.25;7.03;;;;;;;4.68;61.63;99403.44;5038034;27;114628;-64
2023/03/08 09:39:10;;;;;;;16.65;7.28;;;;;;;4.69;61.51;99394.69;5035009;27;114077;-64
2023/03/08 09:41:43;;;;;;;14.30;6.88;;;;;;;4.69;61.48;99384.19;5037721;27;124080;-64
2023/03/08 09:44:16;;;;;;;15.50;7.28;;;;;;;4.70;61.60;99401.59;5033825;27;123891;-64
2023/03/08 09:47:12;;;;;;;13.95;6.78;;;;;;;4.72;61.46;99388.44;5030318;27;114245;-64
2023/03/08 09:49:42;;;;;;;;;;;;;;;4.71;61.69;99370.97;5011057;27;114198;-64
2023/03/08 09:52:20;;;;;;;13.95;6.60;;;;;;;4.72;61.80;99373.53;5032029;27;123875;-64
2023/03/08 09:54:50;;;;;;;13.30;6.55;;;;;;;4.74;61.79;99379.56;5041626;27;124215;-64
2023/03/08 09:57:23;;;;;;;14.35;6.38;;;;;;;4.77;61.73;99376.81;5047507;27;114745;-64
2023/03/08 09:59:57;;;;;;;14.50;6.97;;;;;;;4.78;61.64;99362.75;5041469;27;114406;-64
2023/03/08 10:02:42;;;;;;;12.73;7.07;;;;;;;4.80;61.76;99355.72;5041144;27;123867;-63
2023/03/08 10:05:26;;;;;;;19.38;8.10;;;;;;;4.83;62.02;99352.94;5034415;27;124876;-63
2023/03/08 10:08:19;;;;;;;16.08;7.35;;;;;;;4.86;61.89;99344.94;5041728;27;114190;-64
2023/03/08 10:10:59;;;;;;;16.50;7.18;;;;;;;4.91;61.98;99356.97;5041254;27;114328;-64
2023/03/08 10:13:37;;;;;;;17.80;7.40;;;;;;;4.93;61.80;99352.50;5046391;27;123877;-65
2023/03/08 10:16:20;;;;;;;15.20;7.00;;;;;;;4.98;61.97;99338.25;5051099;27;124021;-65
2023/03/08 10:19:11;;;;;;;15.00;6.90;;;;;;;5.04;61.70;99342.38;5046431;27;114386;-65
2023/03/08 10:21:42;;;;;;;13.43;6.18;;;;;;;5.09;61.78;99335.13;5040410;27;114540;-65
2023/03/08 10:24:18;;;;;;;11.77;6.20;;;;;;;5.14;61.80;99338.41;5045822;27;124071;-65
2023/03/08 10:26:45;;;;;;;11.57;6.35;;;;;;;5.18;62.04;99339.97;5035979;27;124312;-65
2023/03/08 10:29:13;;;;;;;14.25;6.07;;;;;;;5.23;62.17;99348.44;5050453;27;114312;-64
2023/03/08 10:31:43;;;;;;;13.60;6.25;;;;;;;5.30;61.84;99348.19;5054700;27;114369;-64
2023/03/08 10:34:16;;;;;;;10.88;5.80;;;;;;;5.34;61.53;99360.22;5032577;27;124197;-64
2023/03/08 10:36:49;;;;;;;12.90;6.03;;;;;;;5.35;61.49;99368.03;5048291;27;123807;-64
2023/03/08 10:39:17;;;;;;;11.25;5.85;;;;;;;5.41;61.98;99361.66;5043263;27;114283;-65
2023/03/08 10:41:49;;;;;;;12.40;5.68;;;;;;;5.42;61.54;99337.06;5040062;27;114271;-64
2023/03/08 10:44:39;;;;;;;10.27;5.57;;;;;;;5.46;61.87;99333.38;5012874;27;124338;-64
2023/03/08 10:47:21;;;;;;;10.38;5.75;;;;;;;5.50;61.81;99334.94;5022624;27;124229;-65
2023/03/08 10:49:50;;;;;;;9.93;4.90;;;;;;;5.53;61.33;99319.03;5048562;27;113375;-65
2023/03/08 10:52:25;;;;;;;8.48;4.85;;;;;;;5.55;61.70;99314.53;5039177;27;113987;-64
2023/03/08 10:55:01;;;;;;;9.93;5.35;;;;;;;5.58;61.38;99311.78;5039073;27;124275;-65
2023/03/08 10:57:29;;;;;;;8.75;4.88;;;;;;;5.62;61.60;99315.09;5034085;27;122736;-65
2023/03/08 11:00:11;;;;;;;9.18;4.68;;;;;;;5.64;61.28;99321.97;5047107;27;114294;-65
2023/03/08 11:02:38;;;;;;;11.90;5.03;;;;;;;5.64;61.16;99321.97;5044289;27;114531;-65
2023/03/08 11:05:21;;;;;;;10.23;4.57;;;;;;;5.62;60.90;99313.31;5039877;27;123902;-65
2023/03/08 11:07:51;;;;;;;9.38;5.40;;;;;;;5.60;61.09;99315.19;5037971;27;124683;-66
2023/03/08 11:10:22;;;;;;;9.00;4.57;;;;;;;5.59;60.76;99318.72;5027406;27;114302;-65
2023/03/08 11:13:00;;;;;;;11.68;4.57;;;;;;;5.57;60.69;99310.06;5050070;27;114268;-65
2023/03/08 11:15:29;;;;;;;8.82;4.55;;;;;;;5.57;60.73;99310.06;5030306;27;123280;-66
2023/03/08 11:18:18;;;;;;;10.05;5.50;;;;;;;5.55;60.78;99322.44;5036905;27;123750;-65
2023/03/08 11:20:55;;;;;;;10.07;4.95;;;;;;;5.54;60.68;99323.38;5045951;27;114636;-65
2023/03/08 11:23:34;;;;;;;10.48;6.40;;;;;;;5.53;60.88;99324.28;5035067;27;114354;-65
2023/03/08 11:26:21;;;;;;;8.52;4.68;;;;;;;5.49;60.53;99327.97;5044184;27;124043;-65
2023/03/08 11:28:54;;;;;;;8.45;4.82;;;;;;;5.50;60.89;99327.06;5034918;27;124438;-65
2023/03/08 11:31:26;;;;;;;11.80;4.78;;;;;;;5.48;60.77;99318.38;5042900;27;114118;-65
2023/03/08 11:33:56;;;;;;;8.60;4.38;;;;;;;5.49;60.61;99325.34;5049038;27;114912;-65